sensor_id;sensor_type;location;lat;lon;timestamp;temperature;humidity
2967;DHT22;1493;51.496;7.210;2022-12-22T00:00:25;9.80;99.90
2967;DHT22;1493;51.496;7.210;2022-12-22T00:03:12;9.80;99.90
2967;DHT22;1493;51.496;7.210;2022-12-22T00:05:59;9.80;99.90
2967;DHT22;1493;51.496;7.210;2022-12-22T00:08:46;9.80;99.90
2967;DHT22;1493;51.496;7.210;2022-12-22T00:11:34;9.80;99.90
2967;DHT22;1493;51.496;7.210;2022-12-22T00:14:19;9.80;99.90
2967;DHT22;1493;51.496;7.210;2022-12-22T00:17:14;9.70;99.90
2967;DHT22;1493;51.496;7.210;2022-12-22T00:20:00;9.80;99.90
2967;DHT22;1493;51.496;7.210;2022-12-22T00:22:44;9.80;99.90
2967;DHT22;1493;51.496;7.210;2022-12-22T00:25:30;9.80;99.90
2967;DHT22;1493;51.496;7.210;2022-12-22T00:28:16;9.80;99.90
2967;DHT22;1493;51.496;7.210;2022-12-22T00:31:03;9.70;99.90
2967;DHT22;1493;51.496;7.210;2022-12-22T00:33:47;9.70;99.90
2967;DHT22;1493;51.496;7.210;2022-12-22T00:36:31;9.70;99.90
2967;DHT22;1493;51.496;7.210;2022-12-22T00:39:15;9.70;99.90
2967;DHT22;1493;51.496;7.210;2022-12-22T00:41:59;9.70;99.90
2967;DHT22;1493;51.496;7.210;2022-12-22T00:44:45;9.80;99.90
2967;DHT22;1493;51.496;7.210;2022-12-22T00:47:33;9.80;99.90
2967;DHT22;1493;51.496;7.210;2022-12-22T00:50:18;9.80;99.90
2967;DHT22;1493;51.496;7.210;2022-12-22T00:53:02;9.80;99.90
2967;DHT22;1493;51.496;7.210;2022-12-22T00:55:47;9.80;99.90
2967;DHT22;1493;51.496;7.210;2022-12-22T00:58:32;9.80;99.90
2967;DHT22;1493;51.496;7.210;2022-12-22T01:01:18;9.80;99.90
2967;DHT22;1493;51.496;7.210;2022-12-22T01:04:03;9.90;99.90
2967;DHT22;1493;51.496;7.210;2022-12-22T01:06:47;9.90;99.90
2967;DHT22;1493;51.496;7.210;2022-12-22T01:09:31;9.90;99.90
2967;DHT22;1493;51.496;7.210;2022-12-22T01:12:19;9.80;99.90
2967;DHT22;1493;51.496;7.210;2022-12-22T01:15:09;9.90;99.90
2967;DHT22;1493;51.496;7.210;2022-12-22T01:17:56;9.90;99.90
2967;DHT22;1493;51.496;7.210;2022-12-22T01:20:40;10.00;99.90
2967;DHT22;1493;51.496;7.210;2022-12-22T01:23:25;10.00;99.90
2967;DHT22;1493;51.496;7.210;2022-12-22T01:26:09;10.00;99.90
2967;DHT22;1493;51.496;7.210;2022-12-22T01:28:54;10.00;99.90
2967;DHT22;1493;51.496;7.210;2022-12-22T01:31:38;10.00;99.90
2967;DHT22;1493;51.496;7.210;2022-12-22T01:34:23;10.00;99.90
2967;DHT22;1493;51.496;7.210;2022-12-22T01:37:08;10.00;99.90
2967;DHT22;1493;51.496;7.210;2022-12-22T01:39:52;10.00;99.90
2967;DHT22;1493;51.496;7.210;2022-12-22T01:42:36;10.00;99.90
2967;DHT22;1493;51.496;7.210;2022-12-22T01:45:24;10.00;99.90
2967;DHT22;1493;51.496;7.210;2022-12-22T01:48:13;10.00;99.90
2967;DHT22;1493;51.496;7.210;2022-12-22T01:51:01;10.00;99.90
2967;DHT22;1493;51.496;7.210;2022-12-22T01:53:46;10.00;99.90
2967;DHT22;1493;51.496;7.210;2022-12-22T01:56:31;10.00;99.90
2967;DHT22;1493;51.496;7.210;2022-12-22T01:59:16;10.00;99.90
2967;DHT22;1493;51.496;7.210;2022-12-22T02:02:04;10.00;99.90
2967;DHT22;1493;51.496;7.210;2022-12-22T02:04:49;10.00;99.90
2967;DHT22;1493;51.496;7.210;2022-12-22T02:07:47;10.00;99.90
2967;DHT22;1493;51.496;7.210;2022-12-22T02:10:50;10.00;99.90
2967;DHT22;1493;51.496;7.210;2022-12-22T02:13:41;10.00;99.90
2967;DHT22;1493;51.496;7.210;2022-12-22T02:16:31;10.00;99.90
2967;DHT22;1493;51.496;7.210;2022-12-22T02:19:26;10.00;99.90
2967;DHT22;1493;51.496;7.210;2022-12-22T02:22:20;10.00;99.90
2967;DHT22;1493;51.496;7.210;2022-12-22T02:25:14;10.00;99.90
2967;DHT22;1493;51.496;7.210;2022-12-22T02:28:01;10.00;99.90
2967;DHT22;1493;51.496;7.210;2022-12-22T02:30:47;10.00;99.90
2967;DHT22;1493;51.496;7.210;2022-12-22T02:33:32;10.00;99.90
2967;DHT22;1493;51.496;7.210;2022-12-22T02:36:23;10.00;99.90
2967;DHT22;1493;51.496;7.210;2022-12-22T02:39:19;10.00;99.90
2967;DHT22;1493;51.496;7.210;2022-12-22T02:42:15;10.00;99.90
2967;DHT22;1493;51.496;7.210;2022-12-22T02:45:14;10.00;99.90
2967;DHT22;1493;51.496;7.210;2022-12-22T02:48:05;10.00;99.90
2967;DHT22;1493;51.496;7.210;2022-12-22T02:50:56;10.00;99.90
2967;DHT22;1493;51.496;7.210;2022-12-22T02:53:43;10.00;99.90
2967;DHT22;1493;51.496;7.210;2022-12-22T02:56:28;10.00;99.90
2967;DHT22;1493;51.496;7.210;2022-12-22T02:59:12;10.00;99.90
2967;DHT22;1493;51.496;7.210;2022-12-22T03:01:58;10.00;99.90
2967;DHT22;1493;51.496;7.210;2022-12-22T03:04:42;10.00;99.90
2967;DHT22;1493;51.496;7.210;2022-12-22T03:07:26;10.00;99.90
2967;DHT22;1493;51.496;7.210;2022-12-22T03:10:10;10.10;99.90
2967;DHT22;1493;51.496;7.210;2022-12-22T03:12:57;10.10;99.90
2967;DHT22;1493;51.496;7.210;2022-12-22T03:15:42;10.10;99.90
2967;DHT22;1493;51.496;7.210;2022-12-22T03:18:27;10.10;99.90
2967;DHT22;1493;51.496;7.210;2022-12-22T03:21:11;10.10;99.90
2967;DHT22;1493;51.496;7.210;2022-12-22T03:23:56;10.10;99.90
2967;DHT22;1493;51.496;7.210;2022-12-22T03:26:40;10.10;99.90
2967;DHT22;1493;51.496;7.210;2022-12-22T03:29:07;10.10;99.90
2967;DHT22;1493;51.496;7.210;2022-12-22T03:31:34;10.10;99.90
2967;DHT22;1493;51.496;7.210;2022-12-22T03:34:02;10.10;99.90
2967;DHT22;1493;51.496;7.210;2022-12-22T03:36:29;10.10;99.90
2967;DHT22;1493;51.496;7.210;2022-12-22T03:39:00;10.10;99.90
2967;DHT22;1493;51.496;7.210;2022-12-22T03:41:45;10.10;99.90
2967;DHT22;1493;51.496;7.210;2022-12-22T03:44:30;10.10;99.90
2967;DHT22;1493;51.496;7.210;2022-12-22T03:47:14;10.10;99.90
2967;DHT22;1493;51.496;7.210;2022-12-22T03:49:42;10.10;99.90
2967;DHT22;1493;51.496;7.210;2022-12-22T03:52:09;10.10;99.90
2967;DHT22;1493;51.496;7.210;2022-12-22T03:54:35;10.10;99.90
2967;DHT22;1493;51.496;7.210;2022-12-22T03:57:02;10.10;99.90
2967;DHT22;1493;51.496;7.210;2022-12-22T03:59:29;10.10;99.90
2967;DHT22;1493;51.496;7.210;2022-12-22T04:01:56;10.10;99.90
2967;DHT22;1493;51.496;7.210;2022-12-22T04:04:24;10.10;99.90
2967;DHT22;1493;51.496;7.210;2022-12-22T04:06:53;10.10;99.90
2967;DHT22;1493;51.496;7.210;2022-12-22T04:09:20;10.10;99.90
2967;DHT22;1493;51.496;7.210;2022-12-22T04:11:49;10.10;99.90
2967;DHT22;1493;51.496;7.210;2022-12-22T04:14:33;10.10;99.90
2967;DHT22;1493;51.496;7.210;2022-12-22T04:17:00;10.10;99.90
2967;DHT22;1493;51.496;7.210;2022-12-22T04:19:27;10.10;99.90
2967;DHT22;1493;51.496;7.210;2022-12-22T04:21:55;10.10;99.90
2967;DHT22;1493;51.496;7.210;2022-12-22T04:24:22;10.10;99.90
2967;DHT22;1493;51.496;7.210;2022-12-22T04:26:49;10.10;99.90
2967;DHT22;1493;51.496;7.210;2022-12-22T04:29:16;10.10;99.90
2967;DHT22;1493;51.496;7.210;2022-12-22T04:31:43;10.10;99.90
2967;DHT22;1493;51.496;7.210;2022-12-22T04:34:10;10.10;99.90
2967;DHT22;1493;51.496;7.210;2022-12-22T04:36:37;10.10;99.90
2967;DHT22;1493;51.496;7.210;2022-12-22T04:39:05;10.10;99.90
2967;DHT22;1493;51.496;7.210;2022-12-22T04:41:31;10.10;99.90
2967;DHT22;1493;51.496;7.210;2022-12-22T04:43:58;10.10;99.90
2967;DHT22;1493;51.496;7.210;2022-12-22T04:46:25;10.10;99.90
2967;DHT22;1493;51.496;7.210;2022-12-22T04:48:52;10.20;99.90
2967;DHT22;1493;51.496;7.210;2022-12-22T04:51:18;10.10;99.90
2967;DHT22;1493;51.496;7.210;2022-12-22T04:53:45;10.10;99.90
2967;DHT22;1493;51.496;7.210;2022-12-22T04:56:13;10.20;99.90
2967;DHT22;1493;51.496;7.210;2022-12-22T04:58:40;10.20;99.90
2967;DHT22;1493;51.496;7.210;2022-12-22T05:01:08;10.10;99.90
2967;DHT22;1493;51.496;7.210;2022-12-22T05:03:35;10.10;99.90
2967;DHT22;1493;51.496;7.210;2022-12-22T05:06:02;10.10;99.90
2967;DHT22;1493;51.496;7.210;2022-12-22T05:08:29;10.10;99.90
2967;DHT22;1493;51.496;7.210;2022-12-22T05:10:56;10.10;99.90
2967;DHT22;1493;51.496;7.210;2022-12-22T05:13:24;10.10;99.90
2967;DHT22;1493;51.496;7.210;2022-12-22T05:15:51;10.20;99.90
2967;DHT22;1493;51.496;7.210;2022-12-22T05:18:18;10.20;99.90
2967;DHT22;1493;51.496;7.210;2022-12-22T05:20:45;10.20;99.90
2967;DHT22;1493;51.496;7.210;2022-12-22T05:23:11;10.20;99.90
2967;DHT22;1493;51.496;7.210;2022-12-22T05:25:38;10.20;99.90
2967;DHT22;1493;51.496;7.210;2022-12-22T05:28:05;10.20;99.90
2967;DHT22;1493;51.496;7.210;2022-12-22T05:30:33;10.20;99.90
2967;DHT22;1493;51.496;7.210;2022-12-22T05:33:00;10.20;99.90
2967;DHT22;1493;51.496;7.210;2022-12-22T05:35:27;10.30;99.90
2967;DHT22;1493;51.496;7.210;2022-12-22T05:37:53;10.30;99.90
2967;DHT22;1493;51.496;7.210;2022-12-22T05:40:20;10.30;99.90
2967;DHT22;1493;51.496;7.210;2022-12-22T05:42:47;10.30;99.90
2967;DHT22;1493;51.496;7.210;2022-12-22T05:45:16;10.30;99.90
2967;DHT22;1493;51.496;7.210;2022-12-22T05:47:46;10.30;99.90
2967;DHT22;1493;51.496;7.210;2022-12-22T05:50:14;10.30;99.90
2967;DHT22;1493;51.496;7.210;2022-12-22T05:52:41;10.30;99.90
2967;DHT22;1493;51.496;7.210;2022-12-22T05:55:09;10.20;99.90
2967;DHT22;1493;51.496;7.210;2022-12-22T05:57:37;10.20;99.90
2967;DHT22;1493;51.496;7.210;2022-12-22T06:00:05;10.20;99.90
2967;DHT22;1493;51.496;7.210;2022-12-22T06:02:32;10.20;99.90
2967;DHT22;1493;51.496;7.210;2022-12-22T06:05:00;10.20;99.90
2967;DHT22;1493;51.496;7.210;2022-12-22T06:07:27;10.20;99.90
2967;DHT22;1493;51.496;7.210;2022-12-22T06:09:54;10.20;99.90
2967;DHT22;1493;51.496;7.210;2022-12-22T06:12:21;10.30;99.90
2967;DHT22;1493;51.496;7.210;2022-12-22T06:14:47;10.20;99.90
2967;DHT22;1493;51.496;7.210;2022-12-22T06:17:14;10.30;99.90
2967;DHT22;1493;51.496;7.210;2022-12-22T06:19:41;10.30;99.90
2967;DHT22;1493;51.496;7.210;2022-12-22T06:22:09;10.30;99.90
2967;DHT22;1493;51.496;7.210;2022-12-22T06:24:39;10.30;99.90
2967;DHT22;1493;51.496;7.210;2022-12-22T06:27:06;10.30;99.90
2967;DHT22;1493;51.496;7.210;2022-12-22T06:29:33;10.40;99.90
2967;DHT22;1493;51.496;7.210;2022-12-22T06:32:00;10.40;99.90
2967;DHT22;1493;51.496;7.210;2022-12-22T06:34:27;10.40;99.90
2967;DHT22;1493;51.496;7.210;2022-12-22T06:36:54;10.50;99.90
2967;DHT22;1493;51.496;7.210;2022-12-22T06:39:22;10.50;99.90
2967;DHT22;1493;51.496;7.210;2022-12-22T06:41:49;10.50;99.90
2967;DHT22;1493;51.496;7.210;2022-12-22T06:44:33;10.50;99.90
2967;DHT22;1493;51.496;7.210;2022-12-22T06:47:00;10.50;99.90
2967;DHT22;1493;51.496;7.210;2022-12-22T06:49:26;10.50;99.90
2967;DHT22;1493;51.496;7.210;2022-12-22T06:51:53;10.50;99.90
2967;DHT22;1493;51.496;7.210;2022-12-22T06:54:21;10.50;99.90
2967;DHT22;1493;51.496;7.210;2022-12-22T06:56:48;10.50;99.90
2967;DHT22;1493;51.496;7.210;2022-12-22T06:59:15;10.50;99.90
2967;DHT22;1493;51.496;7.210;2022-12-22T07:01:42;10.50;99.90
2967;DHT22;1493;51.496;7.210;2022-12-22T07:04:09;10.50;99.90
2967;DHT22;1493;51.496;7.210;2022-12-22T07:06:36;10.50;99.90
2967;DHT22;1493;51.496;7.210;2022-12-22T07:09:03;10.50;99.90
2967;DHT22;1493;51.496;7.210;2022-12-22T07:11:31;10.50;99.90
2967;DHT22;1493;51.496;7.210;2022-12-22T07:13:58;10.50;99.90
2967;DHT22;1493;51.496;7.210;2022-12-22T07:16:24;10.50;99.90
2967;DHT22;1493;51.496;7.210;2022-12-22T07:18:51;10.40;99.90
2967;DHT22;1493;51.496;7.210;2022-12-22T07:21:18;10.40;99.90
2967;DHT22;1493;51.496;7.210;2022-12-22T07:23:45;10.40;99.90
2967;DHT22;1493;51.496;7.210;2022-12-22T07:26:12;10.40;99.90
2967;DHT22;1493;51.496;7.210;2022-12-22T07:28:40;10.40;99.90
2967;DHT22;1493;51.496;7.210;2022-12-22T07:31:07;10.40;99.90
2967;DHT22;1493;51.496;7.210;2022-12-22T07:33:35;10.40;99.90
2967;DHT22;1493;51.496;7.210;2022-12-22T07:36:04;10.40;99.90
2967;DHT22;1493;51.496;7.210;2022-12-22T07:38:35;10.40;99.90
2967;DHT22;1493;51.496;7.210;2022-12-22T07:41:03;10.40;99.90
2967;DHT22;1493;51.496;7.210;2022-12-22T07:43:51;10.40;99.90
2967;DHT22;1493;51.496;7.210;2022-12-22T07:46:17;10.50;99.90
2967;DHT22;1493;51.496;7.210;2022-12-22T07:48:44;10.50;99.90
2967;DHT22;1493;51.496;7.210;2022-12-22T07:51:31;10.50;99.90
2967;DHT22;1493;51.496;7.210;2022-12-22T07:53:58;10.50;99.90
2967;DHT22;1493;51.496;7.210;2022-12-22T07:56:24;10.50;99.90
2967;DHT22;1493;51.496;7.210;2022-12-22T07:58:53;10.60;99.90
2967;DHT22;1493;51.496;7.210;2022-12-22T08:01:19;10.60;99.90
2967;DHT22;1493;51.496;7.210;2022-12-22T08:03:46;10.60;99.90
2967;DHT22;1493;51.496;7.210;2022-12-22T08:06:13;10.60;99.90
2967;DHT22;1493;51.496;7.210;2022-12-22T08:08:40;10.60;99.90
2967;DHT22;1493;51.496;7.210;2022-12-22T08:11:07;10.60;99.90
2967;DHT22;1493;51.496;7.210;2022-12-22T08:13:34;10.60;99.90
2967;DHT22;1493;51.496;7.210;2022-12-22T08:16:03;10.60;99.90
2967;DHT22;1493;51.496;7.210;2022-12-22T08:18:30;10.60;99.90
2967;DHT22;1493;51.496;7.210;2022-12-22T08:20:57;10.70;99.90
2967;DHT22;1493;51.496;7.210;2022-12-22T08:23:24;10.70;99.90
2967;DHT22;1493;51.496;7.210;2022-12-22T08:25:55;10.60;99.90
2967;DHT22;1493;51.496;7.210;2022-12-22T08:28:23;10.60;99.90
2967;DHT22;1493;51.496;7.210;2022-12-22T08:30:50;10.60;99.90
2967;DHT22;1493;51.496;7.210;2022-12-22T08:33:18;10.60;99.90
2967;DHT22;1493;51.496;7.210;2022-12-22T08:35:45;10.60;99.90
2967;DHT22;1493;51.496;7.210;2022-12-22T08:38:13;10.60;99.90
2967;DHT22;1493;51.496;7.210;2022-12-22T08:40:42;10.50;99.90
2967;DHT22;1493;51.496;7.210;2022-12-22T08:43:09;10.60;99.90
2967;DHT22;1493;51.496;7.210;2022-12-22T08:45:36;10.50;99.90
2967;DHT22;1493;51.496;7.210;2022-12-22T08:48:03;10.60;99.90
2967;DHT22;1493;51.496;7.210;2022-12-22T08:50:31;10.50;99.90
2967;DHT22;1493;51.496;7.210;2022-12-22T08:53:01;10.50;99.90
2967;DHT22;1493;51.496;7.210;2022-12-22T08:55:28;10.50;99.90
2967;DHT22;1493;51.496;7.210;2022-12-22T08:57:55;10.50;99.90
2967;DHT22;1493;51.496;7.210;2022-12-22T09:00:22;10.50;99.90
2967;DHT22;1493;51.496;7.210;2022-12-22T09:02:49;10.60;99.90
2967;DHT22;1493;51.496;7.210;2022-12-22T09:05:16;10.60;99.90
2967;DHT22;1493;51.496;7.210;2022-12-22T09:07:44;10.60;99.90
2967;DHT22;1493;51.496;7.210;2022-12-22T09:10:13;10.60;99.90
2967;DHT22;1493;51.496;7.210;2022-12-22T09:12:40;10.60;99.90
2967;DHT22;1493;51.496;7.210;2022-12-22T09:15:07;10.60;99.90
2967;DHT22;1493;51.496;7.210;2022-12-22T09:17:34;10.70;99.90
2967;DHT22;1493;51.496;7.210;2022-12-22T09:20:03;10.70;99.90
2967;DHT22;1493;51.496;7.210;2022-12-22T09:22:30;10.80;99.90
2967;DHT22;1493;51.496;7.210;2022-12-22T09:24:58;10.80;99.90
2967;DHT22;1493;51.496;7.210;2022-12-22T09:27:25;10.80;99.90
2967;DHT22;1493;51.496;7.210;2022-12-22T09:29:52;10.50;99.90
2967;DHT22;1493;51.496;7.210;2022-12-22T09:32:18;11.00;99.90
2967;DHT22;1493;51.496;7.210;2022-12-22T09:34:45;11.10;99.90
2967;DHT22;1493;51.496;7.210;2022-12-22T09:37:13;11.00;99.90
2967;DHT22;1493;51.496;7.210;2022-12-22T09:39:40;11.10;99.90
2967;DHT22;1493;51.496;7.210;2022-12-22T09:44:41;11.20;99.90
2967;DHT22;1493;51.496;7.210;2022-12-22T09:47:15;11.30;99.90
2967;DHT22;1493;51.496;7.210;2022-12-22T09:49:44;11.30;99.90
2967;DHT22;1493;51.496;7.210;2022-12-22T09:52:21;11.20;99.90
2967;DHT22;1493;51.496;7.210;2022-12-22T09:54:49;11.40;99.90
2967;DHT22;1493;51.496;7.210;2022-12-22T09:57:17;11.50;99.90
2967;DHT22;1493;51.496;7.210;2022-12-22T09:59:44;11.80;99.90
2967;DHT22;1493;51.496;7.210;2022-12-22T10:02:22;11.90;99.90
2967;DHT22;1493;51.496;7.210;2022-12-22T10:05:03;11.80;99.90
2967;DHT22;1493;51.496;7.210;2022-12-22T10:07:33;11.50;99.90
2967;DHT22;1493;51.496;7.210;2022-12-22T10:10:05;11.30;99.90
2967;DHT22;1493;51.496;7.210;2022-12-22T10:12:33;11.30;99.90
2967;DHT22;1493;51.496;7.210;2022-12-22T10:15:00;11.30;99.90
2967;DHT22;1493;51.496;7.210;2022-12-22T10:17:29;11.30;99.90
2967;DHT22;1493;51.496;7.210;2022-12-22T10:20:07;11.40;99.90
2967;DHT22;1493;51.496;7.210;2022-12-22T10:22:43;11.30;99.90
2967;DHT22;1493;51.496;7.210;2022-12-22T10:25:28;11.20;99.90
2967;DHT22;1493;51.496;7.210;2022-12-22T10:27:58;11.10;99.90
2967;DHT22;1493;51.496;7.210;2022-12-22T10:30:27;11.00;99.90
2967;DHT22;1493;51.496;7.210;2022-12-22T10:33:00;10.90;99.90
2967;DHT22;1493;51.496;7.210;2022-12-22T10:35:41;10.90;99.90
2967;DHT22;1493;51.496;7.210;2022-12-22T10:38:21;10.80;99.90
2967;DHT22;1493;51.496;7.210;2022-12-22T10:40:51;10.70;99.90
2967;DHT22;1493;51.496;7.210;2022-12-22T10:43:21;10.70;99.90
2967;DHT22;1493;51.496;7.210;2022-12-22T10:45:50;10.70;99.90
2967;DHT22;1493;51.496;7.210;2022-12-22T10:48:25;10.70;99.90
2967;DHT22;1493;51.496;7.210;2022-12-22T10:50:53;10.60;99.90
2967;DHT22;1493;51.496;7.210;2022-12-22T10:53:20;10.50;99.90
2967;DHT22;1493;51.496;7.210;2022-12-22T10:56:04;10.60;99.90
2967;DHT22;1493;51.496;7.210;2022-12-22T10:58:45;10.40;99.90
2967;DHT22;1493;51.496;7.210;2022-12-22T11:01:22;10.40;99.90
2967;DHT22;1493;51.496;7.210;2022-12-22T11:03:49;10.40;99.90
2967;DHT22;1493;51.496;7.210;2022-12-22T11:06:16;10.40;99.90
2967;DHT22;1493;51.496;7.210;2022-12-22T11:08:44;10.60;99.90
2967;DHT22;1493;51.496;7.210;2022-12-22T11:11:17;10.80;99.90
2967;DHT22;1493;51.496;7.210;2022-12-22T11:13:57;10.80;99.90
2967;DHT22;1493;51.496;7.210;2022-12-22T11:16:32;10.80;99.90
2967;DHT22;1493;51.496;7.210;2022-12-22T11:19:11;11.00;99.90
2967;DHT22;1493;51.496;7.210;2022-12-22T11:21:45;11.10;99.90
2967;DHT22;1493;51.496;7.210;2022-12-22T11:24:27;11.20;99.90
2967;DHT22;1493;51.496;7.210;2022-12-22T11:27:04;11.80;99.90
2967;DHT22;1493;51.496;7.210;2022-12-22T11:30:02;13.20;99.90
2967;DHT22;1493;51.496;7.210;2022-12-22T11:35:41;14.60;99.90
2967;DHT22;1493;51.496;7.210;2022-12-22T11:38:18;14.40;99.90
2967;DHT22;1493;51.496;7.210;2022-12-22T11:40:48;14.10;99.90
2967;DHT22;1493;51.496;7.210;2022-12-22T11:43:23;13.90;99.90
2967;DHT22;1493;51.496;7.210;2022-12-22T11:46:04;14.30;99.90
2967;DHT22;1493;51.496;7.210;2022-12-22T11:48:52;14.60;99.90
2967;DHT22;1493;51.496;7.210;2022-12-22T11:51:29;14.30;99.90
2967;DHT22;1493;51.496;7.210;2022-12-22T11:54:24;13.70;99.90
2967;DHT22;1493;51.496;7.210;2022-12-22T11:56:58;13.30;99.90
2967;DHT22;1493;51.496;7.210;2022-12-22T11:59:38;12.90;99.90
2967;DHT22;1493;51.496;7.210;2022-12-22T12:02:38;12.80;99.90
2967;DHT22;1493;51.496;7.210;2022-12-22T12:05:17;13.00;99.90
2967;DHT22;1493;51.496;7.210;2022-12-22T12:07:49;13.30;99.90
2967;DHT22;1493;51.496;7.210;2022-12-22T12:10:20;14.50;99.90
2967;DHT22;1493;51.496;7.210;2022-12-22T12:12:52;17.00;99.90
2967;DHT22;1493;51.496;7.210;2022-12-22T12:15:28;17.80;99.90
2967;DHT22;1493;51.496;7.210;2022-12-22T12:18:14;17.60;99.90
2967;DHT22;1493;51.496;7.210;2022-12-22T12:20:54;17.00;99.90
2967;DHT22;1493;51.496;7.210;2022-12-22T12:23:38;15.60;99.90
2967;DHT22;1493;51.496;7.210;2022-12-22T12:26:10;14.90;99.90
2967;DHT22;1493;51.496;7.210;2022-12-22T12:28:50;14.00;99.90
2967;DHT22;1493;51.496;7.210;2022-12-22T12:31:25;13.30;99.90
2967;DHT22;1493;51.496;7.210;2022-12-22T12:33:57;12.90;99.90
2967;DHT22;1493;51.496;7.210;2022-12-22T12:36:30;12.60;99.90
2967;DHT22;1493;51.496;7.210;2022-12-22T12:39:04;12.50;99.90
2967;DHT22;1493;51.496;7.210;2022-12-22T12:41:43;12.00;99.90
2967;DHT22;1493;51.496;7.210;2022-12-22T12:44:15;11.80;99.90
2967;DHT22;1493;51.496;7.210;2022-12-22T12:47:03;11.90;99.90
2967;DHT22;1493;51.496;7.210;2022-12-22T12:53:03;11.70;99.90
2967;DHT22;1493;51.496;7.210;2022-12-22T12:55:31;11.50;99.90
2967;DHT22;1493;51.496;7.210;2022-12-22T12:58:00;11.30;99.90
2967;DHT22;1493;51.496;7.210;2022-12-22T13:00:43;11.10;99.90
2967;DHT22;1493;51.496;7.210;2022-12-22T13:03:35;11.10;99.90
2967;DHT22;1493;51.496;7.210;2022-12-22T13:06:04;11.20;99.90
2967;DHT22;1493;51.496;7.210;2022-12-22T13:09:09;11.00;99.90
2967;DHT22;1493;51.496;7.210;2022-12-22T13:11:36;11.00;99.90
2967;DHT22;1493;51.496;7.210;2022-12-22T13:14:03;11.20;99.90
2967;DHT22;1493;51.496;7.210;2022-12-22T13:16:33;11.50;99.90
2967;DHT22;1493;51.496;7.210;2022-12-22T13:19:23;11.80;99.90
2967;DHT22;1493;51.496;7.210;2022-12-22T13:21:52;11.70;99.90
2967;DHT22;1493;51.496;7.210;2022-12-22T13:24:27;11.70;99.90
2967;DHT22;1493;51.496;7.210;2022-12-22T13:27:00;12.00;99.90
2967;DHT22;1493;51.496;7.210;2022-12-22T13:29:38;12.10;99.90
2967;DHT22;1493;51.496;7.210;2022-12-22T13:32:18;12.20;99.90
2967;DHT22;1493;51.496;7.210;2022-12-22T13:34:51;12.00;99.90
2967;DHT22;1493;51.496;7.210;2022-12-22T13:37:20;12.00;99.90
2967;DHT22;1493;51.496;7.210;2022-12-22T13:40:10;12.00;99.90
2967;DHT22;1493;51.496;7.210;2022-12-22T13:42:40;11.90;99.90
2967;DHT22;1493;51.496;7.210;2022-12-22T13:45:13;11.90;99.90
2967;DHT22;1493;51.496;7.210;2022-12-22T13:47:42;11.90;99.90
2967;DHT22;1493;51.496;7.210;2022-12-22T13:50:17;11.70;99.90
2967;DHT22;1493;51.496;7.210;2022-12-22T13:52:45;11.80;99.90
2967;DHT22;1493;51.496;7.210;2022-12-22T13:55:15;12.00;99.90
2967;DHT22;1493;51.496;7.210;2022-12-22T13:57:44;11.90;99.90
2967;DHT22;1493;51.496;7.210;2022-12-22T14:00:19;11.90;99.90
2967;DHT22;1493;51.496;7.210;2022-12-22T14:02:47;11.90;99.90
2967;DHT22;1493;51.496;7.210;2022-12-22T14:05:14;11.90;99.90
2967;DHT22;1493;51.496;7.210;2022-12-22T14:07:57;11.50;99.90
2967;DHT22;1493;51.496;7.210;2022-12-22T14:10:32;11.30;99.90
2967;DHT22;1493;51.496;7.210;2022-12-22T14:13:04;11.10;99.90
2967;DHT22;1493;51.496;7.210;2022-12-22T14:15:32;11.10;99.90
2967;DHT22;1493;51.496;7.210;2022-12-22T14:17:59;11.00;99.90
2967;DHT22;1493;51.496;7.210;2022-12-22T14:20:29;10.80;99.90
2967;DHT22;1493;51.496;7.210;2022-12-22T14:23:03;10.80;99.90
2967;DHT22;1493;51.496;7.210;2022-12-22T14:25:34;10.80;99.90
2967;DHT22;1493;51.496;7.210;2022-12-22T14:28:04;10.70;99.90
2967;DHT22;1493;51.496;7.210;2022-12-22T14:30:34;10.70;99.90
2967;DHT22;1493;51.496;7.210;2022-12-22T14:33:15;10.60;99.90
2967;DHT22;1493;51.496;7.210;2022-12-22T14:35:42;10.40;99.90
2967;DHT22;1493;51.496;7.210;2022-12-22T14:38:19;10.40;99.90
2967;DHT22;1493;51.496;7.210;2022-12-22T14:40:49;10.40;99.90
2967;DHT22;1493;51.496;7.210;2022-12-22T14:43:27;10.40;99.90
2967;DHT22;1493;51.496;7.210;2022-12-22T14:46:02;10.30;99.90
2967;DHT22;1493;51.496;7.210;2022-12-22T14:48:33;10.40;99.90
2967;DHT22;1493;51.496;7.210;2022-12-22T14:51:02;10.30;99.90
2967;DHT22;1493;51.496;7.210;2022-12-22T14:53:36;10.30;99.90
2967;DHT22;1493;51.496;7.210;2022-12-22T14:56:11;10.30;99.90
2967;DHT22;1493;51.496;7.210;2022-12-22T14:58:40;10.30;99.90
2967;DHT22;1493;51.496;7.210;2022-12-22T15:01:16;10.40;99.90
2967;DHT22;1493;51.496;7.210;2022-12-22T15:03:44;10.30;99.90
2967;DHT22;1493;51.496;7.210;2022-12-22T15:06:32;10.40;99.90
2967;DHT22;1493;51.496;7.210;2022-12-22T15:09:20;10.30;99.90
2967;DHT22;1493;51.496;7.210;2022-12-22T15:11:53;10.40;99.90
2967;DHT22;1493;51.496;7.210;2022-12-22T15:14:23;10.40;99.90
2967;DHT22;1493;51.496;7.210;2022-12-22T15:16:54;10.40;99.90
2967;DHT22;1493;51.496;7.210;2022-12-22T15:19:21;10.20;99.90
2967;DHT22;1493;51.496;7.210;2022-12-22T15:21:49;10.20;99.90
2967;DHT22;1493;51.496;7.210;2022-12-22T15:24:17;10.10;99.90
2967;DHT22;1493;51.496;7.210;2022-12-22T15:26:45;10.00;99.90
2967;DHT22;1493;51.496;7.210;2022-12-22T15:29:13;10.00;99.90
2967;DHT22;1493;51.496;7.210;2022-12-22T15:31:41;9.90;99.90
2967;DHT22;1493;51.496;7.210;2022-12-22T15:34:15;9.90;99.90
2967;DHT22;1493;51.496;7.210;2022-12-22T15:36:44;9.80;99.90
2967;DHT22;1493;51.496;7.210;2022-12-22T15:39:13;9.80;99.90
2967;DHT22;1493;51.496;7.210;2022-12-22T15:41:41;9.80;99.90
2967;DHT22;1493;51.496;7.210;2022-12-22T15:44:08;9.60;99.90
2967;DHT22;1493;51.496;7.210;2022-12-22T15:46:37;9.60;99.90
2967;DHT22;1493;51.496;7.210;2022-12-22T15:49:08;9.60;99.90
2967;DHT22;1493;51.496;7.210;2022-12-22T15:51:37;9.60;99.90
2967;DHT22;1493;51.496;7.210;2022-12-22T15:54:04;9.60;99.90
2967;DHT22;1493;51.496;7.210;2022-12-22T15:56:32;9.60;99.90
2967;DHT22;1493;51.496;7.210;2022-12-22T15:59:00;9.60;99.90
2967;DHT22;1493;51.496;7.210;2022-12-22T16:01:27;9.50;99.90
2967;DHT22;1493;51.496;7.210;2022-12-22T16:03:55;9.50;99.90
2967;DHT22;1493;51.496;7.210;2022-12-22T16:06:22;9.50;99.90
2967;DHT22;1493;51.496;7.210;2022-12-22T16:08:50;9.50;99.90
2967;DHT22;1493;51.496;7.210;2022-12-22T16:11:18;9.50;99.90
2967;DHT22;1493;51.496;7.210;2022-12-22T16:13:46;9.50;99.90
2967;DHT22;1493;51.496;7.210;2022-12-22T16:16:13;9.50;99.90
2967;DHT22;1493;51.496;7.210;2022-12-22T16:18:40;9.50;99.90
2967;DHT22;1493;51.496;7.210;2022-12-22T16:21:13;9.50;99.90
2967;DHT22;1493;51.496;7.210;2022-12-22T16:23:42;9.50;99.90
2967;DHT22;1493;51.496;7.210;2022-12-22T16:26:15;9.60;99.90
2967;DHT22;1493;51.496;7.210;2022-12-22T16:28:43;9.60;99.90
2967;DHT22;1493;51.496;7.210;2022-12-22T16:31:16;9.60;99.90
2967;DHT22;1493;51.496;7.210;2022-12-22T16:33:43;9.60;99.90
2967;DHT22;1493;51.496;7.210;2022-12-22T16:36:11;9.60;99.90
2967;DHT22;1493;51.496;7.210;2022-12-22T16:38:38;9.60;99.90
2967;DHT22;1493;51.496;7.210;2022-12-22T16:41:17;9.60;99.90
2967;DHT22;1493;51.496;7.210;2022-12-22T16:43:45;9.60;99.90
2967;DHT22;1493;51.496;7.210;2022-12-22T16:46:14;9.70;99.90
2967;DHT22;1493;51.496;7.210;2022-12-22T16:48:43;9.60;99.90
2967;DHT22;1493;51.496;7.210;2022-12-22T16:51:16;9.60;99.90
2967;DHT22;1493;51.496;7.210;2022-12-22T16:53:43;9.70;99.90
2967;DHT22;1493;51.496;7.210;2022-12-22T16:56:13;9.60;99.90